Mersa Matruh, Egypt
Current Conditions -  °F | °C
As of 2:00 PM on Thursday 30 Oct 2014 (Local Time) from HEMM Reporting Station
Scattered Clouds Scattered Clouds  
Wind Chill: 25°   Ceiling: Unl
Heat Index: 26°   Visibility: 6mi
Dew Point: 15°   Wind: 15mph
Humidity: 54%   Direction: 330°NNW
Pressure: 30"   Gusts: NA
Location:  31.32°N, 27.22°E
Report Text: HEMM 301200Z 33013KT 9999 SCT020 25/15 Q1016 NOSIG
Loading
Personal Weather Stations






























Interactive Weather Map
Tropical Storm Tracking
New forecast layout! Learn more

10-Day Weather Forecast

Advertisements
Track Severe Weather on mobile